createdAt,value
2017-12-03T00:00:22.259Z,54.13
2017-12-03T00:02:48.631Z,46.80
2017-12-03T00:05:15.026Z,48.17
2017-12-03T00:07:41.320Z,50.00
2017-12-03T00:10:08.391Z,48.13
2017-12-03T00:12:34.640Z,46.60
2017-12-03T00:15:00.881Z,45.10
2017-12-03T00:17:27.134Z,54.13
2017-12-03T00:19:53.401Z,50.87
2017-12-03T00:22:19.698Z,45.03
2017-12-03T00:24:46.848Z,47.37
2017-12-03T00:27:13.813Z,50.80
2017-12-03T00:29:40.812Z,43.23
2017-12-03T00:32:07.026Z,48.47
2017-12-03T00:34:33.236Z,48.20
2017-12-03T00:36:59.668Z,49.27
2017-12-03T00:39:26.713Z,45.13
2017-12-03T00:41:52.970Z,47.23
2017-12-03T00:44:19.188Z,51.77
2017-12-03T00:46:45.615Z,43.37
2017-12-03T00:49:11.898Z,44.23
2017-12-03T00:51:38.958Z,54.00
2017-12-03T00:54:05.280Z,53.40
2017-12-03T00:56:31.562Z,56.40
2017-12-03T00:58:57.806Z,48.10
2017-12-03T01:01:24.834Z,47.17
2017-12-03T01:03:58.101Z,51.27
2017-12-03T01:06:24.350Z,52.70
2017-12-03T01:08:50.641Z,51.73
2017-12-03T01:11:16.887Z,52.13
2017-12-03T01:13:43.244Z,53.27
2017-12-03T01:16:09.495Z,55.50
2017-12-03T01:18:37.157Z,58.40
2017-12-03T01:21:03.568Z,50.30
2017-12-03T01:23:29.822Z,45.83
2017-12-03T01:25:56.150Z,48.00
2017-12-03T01:28:22.391Z,59.93
2017-12-03T01:30:49.417Z,49.93
2017-12-03T01:33:15.774Z,46.10
2017-12-03T01:35:42.066Z,51.10
2017-12-03T01:38:08.352Z,58.23
2017-12-03T01:40:34.661Z,51.80
2017-12-03T01:43:00.917Z,53.80
2017-12-03T01:45:27.199Z,56.40
2017-12-03T01:47:54.216Z,56.00
2017-12-03T01:50:20.582Z,51.93
2017-12-03T01:52:46.854Z,61.33
2017-12-03T01:55:13.100Z,60.93
2017-12-03T01:57:39.377Z,52.97
2017-12-03T02:00:06.382Z,64.27
2017-12-03T02:02:32.686Z,64.53
2017-12-03T02:04:58.922Z,56.77
2017-12-03T02:07:25.310Z,60.20
2017-12-03T02:09:52.406Z,61.20
2017-12-03T02:12:18.725Z,57.83
2017-12-03T02:14:45.099Z,56.03
2017-12-03T02:17:11.362Z,56.77
2017-12-03T02:19:37.824Z,57.33
2017-12-03T02:22:04.129Z,57.80
2017-12-03T02:24:30.398Z,57.83
2017-12-03T02:26:56.704Z,58.17
2017-12-03T02:29:23.053Z,64.03
2017-12-03T02:31:49.294Z,49.73
2017-12-03T02:34:15.583Z,58.60
2017-12-03T02:36:41.853Z,56.77
2017-12-03T02:39:08.284Z,53.00
2017-12-03T02:41:34.552Z,51.10
2017-12-03T02:44:00.833Z,58.67
2017-12-03T02:46:27.096Z,58.13
2017-12-03T02:48:54.080Z,59.60
2017-12-03T02:51:20.422Z,55.90
2017-12-03T02:53:46.766Z,60.93
2017-12-03T02:56:13.222Z,57.47
2017-12-03T02:58:39.497Z,60.80
2017-12-03T03:01:05.845Z,61.73
2017-12-03T03:03:33.033Z,56.33
2017-12-03T03:05:59.297Z,62.90
2017-12-03T03:08:25.571Z,67.47
2017-12-03T03:10:51.838Z,61.40
2017-12-03T03:13:18.175Z,69.53
2017-12-03T03:15:45.175Z,64.30
2017-12-03T03:18:11.481Z,75.87
2017-12-03T03:20:37.738Z,64.77
2017-12-03T03:23:04.025Z,64.33
2017-12-03T03:25:30.332Z,61.27
2017-12-03T03:27:57.418Z,59.47
2017-12-03T03:30:23.701Z,73.37
2017-12-03T03:32:50.731Z,62.37
2017-12-03T03:35:17.151Z,60.43
2017-12-03T03:37:43.426Z,62.77
2017-12-03T03:40:09.931Z,59.67
2017-12-03T03:42:36.194Z,60.13
2017-12-03T03:45:03.186Z,70.47
2017-12-03T03:47:29.522Z,58.70
2017-12-03T03:49:55.763Z,61.43
2017-12-03T03:52:22.753Z,62.50
2017-12-03T03:54:49.022Z,60.90
2017-12-03T03:57:15.250Z,62.40
2017-12-03T03:59:41.542Z,50.33
2017-12-03T04:02:07.811Z,60.63
2017-12-03T04:04:34.150Z,59.63
2017-12-03T04:07:01.153Z,59.23
2017-12-03T04:09:27.443Z,65.50
2017-12-03T04:11:53.845Z,62.77
2017-12-03T04:14:20.079Z,54.17
2017-12-03T04:16:46.370Z,57.43
2017-12-03T04:19:12.626Z,54.50
2017-12-03T04:21:39.744Z,55.10
2017-12-03T04:24:06.028Z,54.80
2017-12-03T04:26:33.026Z,53.90
2017-12-03T04:28:59.272Z,57.53
2017-12-03T04:31:25.486Z,60.70
2017-12-03T04:33:51.730Z,48.90
2017-12-03T04:36:18.068Z,57.70
2017-12-03T04:38:44.301Z,52.47
2017-12-03T04:41:10.642Z,58.17
2017-12-03T04:43:36.891Z,56.13
2017-12-03T04:46:03.281Z,59.30
2017-12-03T04:48:29.571Z,63.97
2017-12-03T04:50:55.842Z,65.07
2017-12-03T04:53:22.076Z,60.57
2017-12-03T04:55:48.376Z,64.23
2017-12-03T04:58:14.694Z,59.13
2017-12-03T05:00:41.099Z,68.97
2017-12-03T05:03:07.423Z,60.60
2017-12-03T05:05:34.435Z,72.17
2017-12-03T05:08:00.833Z,60.73
2017-12-03T05:10:27.941Z,61.17
2017-12-03T05:12:54.419Z,63.77
2017-12-03T05:15:20.702Z,58.67
2017-12-03T05:17:46.921Z,59.20
2017-12-03T05:20:13.165Z,63.90
2017-12-03T05:22:40.218Z,59.60
2017-12-03T05:25:07.269Z,59.30
2017-12-03T05:27:34.370Z,66.30
2017-12-03T05:30:00.630Z,66.97
2017-12-03T05:32:27.646Z,50.90
2017-12-03T05:34:54.115Z,64.70
2017-12-03T05:37:20.366Z,63.97
2017-12-03T05:39:46.624Z,55.73
2017-12-03T05:42:13.004Z,62.77
2017-12-03T05:44:40.098Z,60.30
2017-12-03T05:47:06.367Z,60.37
2017-12-03T05:49:32.724Z,60.60
2017-12-03T05:51:59.023Z,56.13
2017-12-03T05:54:25.282Z,64.97
2017-12-03T05:56:52.300Z,57.90
2017-12-03T05:59:18.543Z,67.83
2017-12-03T06:01:45.675Z,66.77
2017-12-03T06:04:12.107Z,61.93
2017-12-03T06:06:38.393Z,60.23
2017-12-03T06:09:04.674Z,63.73
2017-12-03T06:11:30.952Z,64.43
2017-12-03T06:13:57.226Z,65.33
2017-12-03T06:16:23.457Z,64.07
2017-12-03T06:18:51.219Z,68.87
2017-12-03T06:21:17.528Z,62.43
2017-12-03T06:23:43.871Z,63.47
2017-12-03T06:26:10.251Z,61.80
2017-12-03T06:28:36.518Z,63.17
2017-12-03T06:31:02.819Z,66.70
2017-12-03T06:33:29.088Z,66.70
2017-12-03T06:35:55.379Z,69.20
2017-12-03T06:38:21.710Z,71.40
2017-12-03T06:40:48.039Z,74.17
2017-12-03T06:43:14.277Z,65.33
2017-12-03T06:45:40.593Z,69.57
2017-12-03T06:48:06.854Z,62.57
2017-12-03T06:50:33.082Z,72.10
2017-12-03T06:52:59.373Z,76.43
2017-12-03T06:55:25.678Z,72.87
2017-12-03T06:57:52.026Z,81.53
2017-12-03T07:00:18.442Z,69.20
2017-12-03T07:02:45.640Z,70.73
2017-12-03T07:05:12.017Z,71.10
2017-12-03T07:07:38.293Z,71.07
2017-12-03T07:10:04.530Z,74.33
2017-12-03T07:12:30.831Z,68.77
2017-12-03T07:14:57.158Z,71.23
2017-12-03T07:17:23.396Z,76.90
2017-12-03T07:19:49.696Z,77.43
2017-12-03T07:22:16.753Z,75.17
2017-12-03T07:24:43.802Z,70.80
2017-12-03T07:27:10.844Z,70.30
2017-12-03T07:29:37.220Z,68.60
2017-12-03T07:32:03.526Z,76.13
2017-12-03T07:34:29.800Z,68.07
2017-12-03T07:36:56.902Z,75.53
2017-12-03T07:39:23.197Z,68.23
2017-12-03T07:41:50.277Z,68.17
2017-12-03T07:44:16.542Z,71.67
2017-12-03T07:46:42.827Z,67.40
2017-12-03T07:49:09.175Z,66.47
2017-12-03T07:51:35.582Z,65.47
2017-12-03T07:54:01.954Z,68.07
2017-12-03T07:56:28.297Z,60.40
2017-12-03T07:58:54.657Z,63.73
2017-12-03T08:01:21.725Z,63.67
2017-12-03T08:03:48.770Z,61.87
2017-12-03T08:06:15.085Z,64.47
2017-12-03T08:08:42.763Z,59.53
2017-12-03T08:11:09.131Z,62.70
2017-12-03T08:13:39.640Z,63.90
2017-12-03T08:16:05.863Z,69.83
2017-12-03T08:18:32.190Z,53.80
2017-12-03T08:20:58.494Z,54.67
2017-12-03T08:23:25.722Z,54.13
2017-12-03T08:25:53.718Z,57.53
2017-12-03T08:28:21.149Z,63.30
2017-12-03T08:30:48.429Z,55.97
2017-12-03T08:33:14.759Z,52.47
2017-12-03T08:35:43.524Z,48.83
2017-12-03T08:38:09.894Z,52.03
2017-12-03T08:40:37.505Z,48.97
2017-12-03T08:43:03.935Z,58.17
2017-12-03T08:45:30.273Z,51.37
2017-12-03T08:47:57.624Z,46.77
2017-12-03T08:50:24.154Z,49.57
2017-12-03T08:52:50.907Z,49.57
2017-12-03T08:55:17.377Z,49.83
2017-12-03T08:57:43.647Z,49.40
2017-12-03T09:00:09.983Z,45.00
2017-12-03T09:02:36.419Z,46.70
2017-12-03T09:05:02.851Z,47.57
2017-12-03T09:07:29.195Z,45.70
2017-12-03T09:09:56.460Z,47.40
2017-12-03T09:12:23.476Z,47.90
2017-12-03T09:14:49.895Z,39.00
2017-12-03T09:17:16.191Z,39.70
2017-12-03T09:19:42.773Z,42.93
2017-12-03T09:22:11.259Z,44.40
2017-12-03T09:24:37.702Z,40.43
2017-12-03T09:27:04.779Z,41.33
2017-12-03T09:29:31.443Z,41.50
2017-12-03T09:31:58.569Z,43.83
2017-12-03T09:34:26.406Z,36.17
2017-12-03T09:36:55.096Z,40.20
2017-12-03T09:39:24.591Z,39.13
2017-12-03T09:41:51.313Z,47.37
2017-12-03T09:44:17.630Z,40.70
2017-12-03T09:46:44.101Z,39.40
2017-12-03T09:49:11.308Z,35.83
2017-12-03T09:51:37.868Z,41.63
2017-12-03T09:54:04.318Z,40.90
2017-12-03T09:56:31.750Z,36.47
2017-12-03T09:58:58.129Z,36.53
2017-12-03T10:01:24.511Z,37.50
2017-12-03T10:03:51.393Z,32.27
2017-12-03T10:06:18.109Z,34.00
2017-12-03T10:08:45.556Z,36.50
2017-12-03T10:11:11.867Z,33.83
2017-12-03T10:13:42.712Z,33.30
2017-12-03T10:16:09.513Z,33.53
2017-12-03T10:18:35.814Z,36.13
2017-12-03T10:21:02.830Z,32.20
2017-12-03T10:23:29.510Z,32.00
2017-12-03T10:25:55.823Z,31.57
2017-12-03T10:28:22.965Z,25.93
2017-12-03T10:30:50.753Z,36.17
2017-12-03T10:33:18.045Z,31.50
2017-12-03T10:35:47.977Z,32.27
2017-12-03T10:38:19.507Z,30.07
2017-12-03T10:40:46.624Z,28.33
2017-12-03T10:43:13.664Z,30.03
2017-12-03T10:45:40.729Z,32.50
2017-12-03T10:48:07.680Z,27.37
2017-12-03T10:50:33.934Z,30.20
2017-12-03T10:53:00.256Z,26.87
2017-12-03T10:55:26.553Z,30.43
2017-12-03T10:57:53.528Z,26.40
2017-12-03T11:00:26.730Z,42.77
2017-12-03T11:02:53.860Z,30.17
2017-12-03T11:05:20.181Z,32.73
2017-12-03T11:07:46.487Z,87.47
2017-12-03T11:10:14.900Z,33.10
2017-12-03T11:12:41.245Z,49.73
2017-12-03T11:15:07.458Z,89.90
2017-12-03T11:17:33.771Z,36.03
2017-12-03T11:20:00.009Z,48.40
2017-12-03T11:22:26.371Z,37.50
2017-12-03T11:24:52.685Z,32.40
2017-12-03T11:27:19.056Z,25.88
2017-12-03T11:29:45.346Z,27.40
2017-12-03T11:32:11.891Z,27.40
2017-12-03T11:34:38.151Z,27.00
2017-12-03T11:37:04.475Z,27.47
2017-12-03T11:39:30.730Z,26.43
2017-12-03T11:41:57.796Z,26.90
2017-12-03T11:44:24.049Z,26.25
2017-12-03T11:46:50.363Z,22.53
2017-12-03T11:49:16.689Z,27.20
2017-12-03T11:51:43.050Z,28.93
2017-12-03T11:54:09.322Z,25.07
2017-12-03T11:56:35.735Z,26.40
2017-12-03T11:59:02.769Z,24.60
2017-12-03T12:01:29.905Z,23.50
2017-12-03T12:03:56.156Z,24.73
2017-12-03T12:06:22.754Z,22.40
2017-12-03T12:08:49.000Z,24.87
2017-12-03T12:11:15.230Z,24.77
2017-12-03T12:13:41.616Z,24.80
2017-12-03T12:16:07.928Z,23.67
2017-12-03T12:18:35.024Z,20.83
2017-12-03T12:21:01.326Z,18.73
2017-12-03T12:23:27.644Z,20.60
2017-12-03T12:25:54.796Z,25.20
2017-12-03T12:28:21.771Z,22.40
2017-12-03T12:30:48.153Z,24.73
2017-12-03T12:33:16.005Z,22.70
2017-12-03T12:35:42.413Z,19.70
2017-12-03T12:38:08.664Z,19.77
2017-12-03T12:40:35.030Z,23.63
2017-12-03T12:43:01.333Z,19.73
2017-12-03T12:45:27.589Z,24.90
2017-12-03T12:47:54.650Z,18.10
2017-12-03T12:50:20.955Z,39.00
2017-12-03T12:52:48.046Z,20.07
2017-12-03T12:55:14.344Z,24.30
2017-12-03T12:57:40.624Z,21.80
2017-12-03T13:00:07.021Z,21.80
2017-12-03T13:02:33.335Z,19.03
2017-12-03T13:04:59.797Z,21.60
2017-12-03T13:07:26.181Z,22.07
2017-12-03T13:09:52.521Z,18.40
2017-12-03T13:12:19.484Z,19.57
2017-12-03T13:14:45.828Z,24.03
2017-12-03T13:17:12.088Z,21.73
2017-12-03T13:19:38.475Z,23.40
2017-12-03T13:22:04.705Z,18.20
2017-12-03T13:24:31.151Z,29.47
2017-12-03T13:26:58.422Z,27.83
2017-12-03T13:29:25.350Z,18.57
2017-12-03T13:31:52.210Z,20.77
2017-12-03T13:34:19.258Z,18.60
2017-12-03T13:36:45.523Z,19.87
2017-12-03T13:39:12.552Z,20.77
2017-12-03T13:41:38.829Z,19.03
2017-12-03T13:44:05.105Z,21.50
2017-12-03T13:46:31.780Z,22.27
2017-12-03T13:48:58.926Z,23.70
2017-12-03T13:51:26.538Z,19.93
2017-12-03T13:53:54.297Z,18.57
2017-12-03T13:56:20.682Z,21.53
2017-12-03T13:58:47.676Z,21.00
2017-12-03T14:01:13.970Z,20.27
2017-12-03T14:03:40.546Z,24.30
2017-12-03T14:06:06.859Z,20.67
2017-12-03T14:08:33.091Z,29.30
2017-12-03T14:10:59.455Z,22.50
2017-12-03T14:13:29.753Z,28.97
2017-12-03T14:15:56.185Z,26.60
2017-12-03T14:18:22.505Z,18.00
2017-12-03T14:20:48.869Z,18.93
2017-12-03T14:23:15.106Z,20.83
2017-12-03T14:25:41.537Z,19.17
2017-12-03T14:28:07.805Z,20.53
2017-12-03T14:30:34.094Z,22.77
2017-12-03T14:33:01.199Z,17.33
2017-12-03T14:35:27.441Z,27.10
2017-12-03T14:37:53.748Z,21.90
2017-12-03T14:40:20.018Z,21.73
2017-12-03T14:42:46.347Z,21.03
2017-12-03T14:45:12.656Z,22.80
2017-12-03T14:47:38.896Z,22.57
2017-12-03T14:50:05.196Z,21.63
2017-12-03T14:52:31.585Z,23.90
2017-12-03T14:54:58.659Z,19.80
2017-12-03T14:57:24.953Z,20.93
2017-12-03T14:59:55.341Z,24.70
2017-12-03T15:02:23.718Z,19.23
2017-12-03T15:04:52.724Z,21.53
2017-12-03T15:07:22.597Z,29.03
2017-12-03T15:09:51.232Z,21.33
2017-12-03T15:12:22.455Z,21.07
2017-12-03T15:14:53.708Z,20.23
2017-12-03T15:17:22.325Z,25.10
2017-12-03T15:19:51.886Z,24.90
2017-12-03T15:25:19.419Z,26.77
2017-12-03T15:27:52.980Z,21.20
2017-12-03T15:30:33.176Z,22.77
2017-12-03T15:33:25.449Z,23.97
2017-12-03T15:36:06.032Z,24.40
2017-12-03T15:38:43.976Z,23.70
2017-12-03T15:41:23.521Z,25.70
2017-12-03T15:55:35.558Z,25.17
2017-12-03T15:58:12.912Z,24.13
2017-12-03T16:00:44.247Z,28.73
2017-12-03T16:03:20.686Z,27.43
2017-12-03T16:06:10.643Z,28.90
2017-12-03T16:08:37.824Z,22.47
2017-12-03T16:11:04.431Z,25.67
2017-12-03T16:13:31.231Z,25.60
2017-12-03T16:15:57.606Z,23.93
2017-12-03T16:18:23.769Z,21.87
2017-12-03T16:20:51.594Z,22.10
2017-12-03T16:23:17.847Z,29.23
2017-12-03T16:25:58.528Z,28.50
2017-12-03T16:28:24.861Z,26.20
2017-12-03T16:30:51.048Z,26.70
2017-12-03T16:33:17.827Z,28.73
2017-12-03T16:35:44.019Z,22.83
2017-12-03T16:38:10.967Z,22.03
2017-12-03T16:40:37.192Z,22.50
2017-12-03T16:43:03.381Z,21.70
2017-12-03T16:45:29.639Z,29.23
2017-12-03T16:47:56.046Z,24.00
2017-12-03T16:50:22.628Z,34.57
2017-12-03T16:52:48.945Z,23.40
2017-12-03T16:55:15.153Z,33.50
2017-12-03T16:57:41.349Z,25.53
2017-12-03T17:00:08.158Z,27.47
2017-12-03T17:02:34.421Z,25.63
2017-12-03T17:05:00.776Z,33.00
2017-12-03T17:07:26.994Z,37.73
2017-12-03T17:09:53.190Z,35.63
2017-12-03T17:12:19.460Z,31.87
2017-12-03T17:14:46.479Z,32.90
2017-12-03T17:17:12.635Z,37.80
2017-12-03T17:19:38.835Z,44.27
2017-12-03T17:22:05.119Z,30.57
2017-12-03T17:24:31.328Z,33.13
2017-12-03T17:26:57.678Z,36.73
2017-12-03T17:29:23.851Z,35.07
2017-12-03T17:31:50.075Z,34.93
2017-12-03T17:34:17.021Z,33.17
2017-12-03T17:36:43.212Z,57.80
2017-12-03T17:39:09.431Z,36.83
2017-12-03T17:41:35.634Z,35.70
2017-12-03T17:44:01.821Z,34.30
2017-12-03T17:46:28.031Z,36.23
2017-12-03T17:48:54.203Z,52.27
2017-12-03T17:51:21.167Z,47.37
2017-12-03T17:53:48.159Z,46.73
2017-12-03T17:56:14.368Z,36.10
2017-12-03T17:58:40.619Z,30.67
2017-12-03T18:01:06.775Z,37.67
2017-12-03T18:03:32.962Z,34.53
2017-12-03T18:05:59.143Z,35.07
2017-12-03T18:08:26.121Z,41.30
2017-12-03T18:10:52.316Z,41.20
2017-12-03T18:13:19.820Z,36.47
2017-12-03T18:15:48.310Z,43.10
2017-12-03T18:18:15.533Z,33.80
2017-12-03T18:20:44.283Z,43.37
2017-12-03T18:23:10.583Z,32.70
2017-12-03T18:25:36.839Z,39.50
2017-12-03T18:28:03.035Z,38.73
2017-12-03T18:30:29.523Z,41.80
2017-12-03T18:32:55.755Z,36.10
2017-12-03T18:35:22.064Z,43.97
2017-12-03T18:37:54.280Z,45.73
2017-12-03T18:40:21.242Z,38.70
2017-12-03T18:42:49.143Z,42.43
2017-12-03T18:45:16.052Z,51.03
2017-12-03T18:47:43.608Z,52.90
2017-12-03T18:50:11.336Z,51.13
2017-12-03T18:52:38.132Z,57.50
2017-12-03T18:55:05.330Z,63.47
2017-12-03T18:57:32.714Z,62.90
2017-12-03T18:59:59.870Z,61.70
2017-12-03T19:02:26.661Z,71.13
2017-12-03T19:04:53.643Z,53.23
2017-12-03T19:07:20.549Z,57.47
2017-12-03T19:09:48.007Z,66.47
2017-12-03T19:12:15.015Z,63.08
2017-12-03T19:14:42.770Z,63.60
2017-12-03T19:17:09.887Z,65.47
2017-12-03T19:19:37.177Z,64.37
2017-12-03T19:22:04.046Z,74.83
2017-12-03T19:24:31.148Z,53.10
2017-12-03T19:26:58.415Z,54.43
2017-12-03T19:29:25.218Z,55.73
2017-12-03T19:31:52.635Z,68.90
2017-12-03T19:36:52.867Z,69.90
2017-12-03T19:39:20.105Z,65.33
2017-12-03T19:41:46.936Z,62.30
2017-12-03T19:44:13.577Z,67.63
2017-12-03T19:46:40.414Z,70.33
2017-12-03T19:49:07.115Z,76.77
2017-12-03T19:51:34.079Z,96.03
2017-12-03T19:54:02.032Z,80.60
2017-12-03T19:56:29.031Z,76.63
2017-12-03T19:58:55.860Z,81.60
2017-12-03T20:01:22.696Z,86.13
2017-12-03T20:03:49.230Z,86.97
2017-12-03T20:06:16.213Z,93.13
2017-12-03T20:08:43.649Z,93.20
2017-12-03T20:11:10.620Z,89.13
2017-12-03T20:13:37.838Z,94.07
2017-12-03T20:16:04.725Z,92.10
2017-12-03T20:18:32.060Z,87.00
2017-12-03T20:20:59.624Z,77.53
2017-12-03T20:23:27.220Z,86.83
2017-12-03T20:25:54.376Z,77.90
2017-12-03T20:28:21.112Z,76.53
2017-12-03T20:30:48.079Z,82.53
2017-12-03T20:33:15.677Z,80.53
2017-12-03T20:35:43.310Z,75.17
2017-12-03T20:38:10.127Z,69.67
2017-12-03T20:40:36.886Z,69.63
2017-12-03T20:43:03.967Z,82.77
2017-12-03T20:45:30.777Z,83.83
2017-12-03T20:47:58.070Z,88.27
2017-12-03T20:50:24.695Z,93.47
2017-12-03T20:52:51.522Z,92.90
2017-12-03T20:55:18.287Z,93.07
2017-12-03T20:57:45.044Z,93.83
2017-12-03T21:00:11.880Z,94.97
2017-12-03T21:02:38.658Z,96.80
2017-12-03T21:05:06.477Z,76.10
2017-12-03T21:07:33.648Z,93.97
2017-12-03T21:10:00.556Z,86.43
2017-12-03T21:12:27.408Z,99.47
2017-12-03T21:14:54.164Z,96.73
2017-12-03T21:17:21.221Z,107.00
2017-12-03T21:19:47.959Z,91.83
2017-12-03T21:22:15.345Z,114.63
2017-12-03T21:24:42.474Z,113.17
2017-12-03T21:27:10.138Z,102.20
2017-12-03T21:29:36.961Z,109.53
2017-12-03T21:32:03.661Z,99.00
2017-12-03T21:34:30.546Z,110.40
2017-12-03T21:36:57.856Z,110.13
2017-12-03T21:39:25.490Z,105.57
2017-12-03T21:41:52.459Z,107.97
2017-12-03T21:44:19.427Z,107.80
2017-12-03T21:46:46.453Z,99.33
2017-12-03T21:49:13.375Z,104.77
2017-12-03T21:51:40.168Z,117.47
2017-12-03T21:54:07.013Z,93.93
2017-12-03T21:56:34.054Z,108.07
2017-12-03T21:59:00.720Z,94.23
2017-12-03T22:01:27.546Z,96.23
2017-12-03T22:03:53.723Z,89.20
2017-12-03T22:06:19.882Z,95.43
2017-12-03T22:08:46.100Z,93.63
2017-12-03T22:11:12.281Z,101.10
2017-12-03T22:13:39.271Z,88.23
2017-12-03T22:16:05.670Z,95.57
2017-12-03T22:18:32.696Z,105.77
2017-12-03T22:20:58.992Z,85.97
2017-12-03T22:23:25.316Z,115.30
2017-12-03T22:25:51.685Z,101.67
2017-12-03T22:28:17.971Z,100.20
2017-12-03T22:30:44.130Z,94.60
2017-12-03T22:33:10.354Z,102.57
2017-12-03T22:35:36.535Z,98.73
2017-12-03T22:38:02.702Z,100.37
2017-12-03T22:40:29.655Z,79.67
2017-12-03T22:42:55.831Z,98.37
2017-12-03T22:45:22.714Z,85.10
2017-12-03T22:47:48.985Z,92.70
2017-12-03T22:50:15.895Z,81.10
2017-12-03T22:52:42.108Z,81.10
2017-12-03T22:55:08.344Z,93.63
2017-12-03T22:57:34.575Z,83.40
2017-12-03T23:00:01.354Z,89.70
2017-12-03T23:02:27.559Z,70.30
2017-12-03T23:04:54.884Z,76.63
2017-12-03T23:07:21.075Z,73.27
2017-12-03T23:09:47.237Z,71.53
2017-12-03T23:12:13.523Z,74.70
2017-12-03T23:14:39.758Z,85.70
2017-12-03T23:17:05.959Z,77.23
2017-12-03T23:19:32.110Z,93.80
2017-12-03T23:21:58.248Z,73.40
2017-12-03T23:24:24.532Z,84.87
2017-12-03T23:26:50.875Z,74.13
2017-12-03T23:29:17.814Z,75.90
2017-12-03T23:31:43.977Z,73.33
2017-12-03T23:34:10.260Z,66.10
2017-12-03T23:36:36.462Z,77.00
2017-12-03T23:39:02.638Z,80.43
2017-12-03T23:41:28.850Z,71.87
2017-12-03T23:43:55.021Z,73.13
2017-12-03T23:46:21.310Z,71.37
2017-12-03T23:48:47.504Z,69.27
2017-12-03T23:51:13.729Z,79.43
2017-12-03T23:53:39.930Z,63.57
2017-12-03T23:56:06.131Z,79.40
2017-12-03T23:58:32.361Z,82.40
